createdAt,value
2018-05-31T00:01:39.234Z,4.77
2018-05-31T00:04:07.069Z,2.73
2018-05-31T00:06:34.960Z,5.30
2018-05-31T00:09:02.790Z,11.43
2018-05-31T00:11:30.597Z,5.30
2018-05-31T00:13:59.834Z,5.00
2018-05-31T00:16:27.661Z,7.47
2018-05-31T00:18:55.485Z,5.50
2018-05-31T00:21:23.398Z,6.60
2018-05-31T00:23:52.638Z,5.17
2018-05-31T00:26:20.478Z,7.73
2018-05-31T00:28:48.674Z,6.87
2018-05-31T00:31:16.494Z,5.50
2018-05-31T00:33:44.317Z,5.00
2018-05-31T00:36:12.696Z,8.40
2018-05-31T00:38:40.512Z,8.30
2018-05-31T00:41:08.341Z,3.93
2018-05-31T00:43:36.607Z,4.83
2018-05-31T00:46:04.430Z,6.17
2018-05-31T00:48:32.254Z,7.30
2018-05-31T00:51:00.149Z,7.80
2018-05-31T00:53:27.968Z,7.50
2018-05-31T00:56:02.690Z,6.93
2018-05-31T00:58:30.506Z,6.37
2018-05-31T01:00:58.338Z,6.20
2018-05-31T01:03:26.561Z,6.90
2018-05-31T01:05:54.388Z,5.80
2018-05-31T01:08:22.214Z,14.20
2018-05-31T01:10:50.097Z,87.80
2018-05-31T01:13:17.925Z,196.07
2018-05-31T01:15:45.742Z,224.10
2018-05-31T01:18:14.011Z,13.47
2018-05-31T01:20:41.831Z,8.87
2018-05-31T01:23:09.649Z,13.57
2018-05-31T01:25:38.293Z,60.03
2018-05-31T01:28:06.115Z,45.07
2018-05-31T01:30:33.933Z,40.73
2018-05-31T01:33:02.027Z,10.47
2018-05-31T01:35:29.851Z,13.60
2018-05-31T01:38:14.151Z,7.43
2018-05-31T01:40:41.974Z,5.40
2018-05-31T01:43:09.798Z,9.50
2018-05-31T01:45:38.172Z,5.10
2018-05-31T01:48:05.995Z,6.27
2018-05-31T01:50:33.814Z,5.53
2018-05-31T01:53:01.862Z,5.83
2018-05-31T01:55:29.688Z,7.60
2018-05-31T01:57:57.497Z,5.20
2018-05-31T02:00:26.182Z,7.43
2018-05-31T02:02:54.006Z,6.97
2018-05-31T02:05:21.820Z,5.70
2018-05-31T02:07:49.678Z,6.27
2018-05-31T02:10:17.507Z,7.20
2018-05-31T02:12:45.341Z,7.37
2018-05-31T02:15:13.481Z,6.67
2018-05-31T02:17:41.293Z,6.67
2018-05-31T02:20:09.114Z,6.73
2018-05-31T02:22:37.497Z,5.70
2018-05-31T02:25:05.314Z,5.23
2018-05-31T02:27:33.855Z,7.93
2018-05-31T02:30:01.738Z,4.27
2018-05-31T02:32:29.682Z,4.40
2018-05-31T02:34:57.520Z,55.73
2018-05-31T02:37:25.407Z,84.87
2018-05-31T02:39:53.234Z,11.37
2018-05-31T02:42:21.055Z,9.40
2018-05-31T02:44:49.074Z,10.13
2018-05-31T02:47:16.902Z,8.73
2018-05-31T02:49:44.726Z,7.20
2018-05-31T02:52:12.732Z,8.60
2018-05-31T02:54:40.548Z,7.60
2018-05-31T02:57:08.369Z,8.87
2018-05-31T02:59:36.237Z,6.50
2018-05-31T03:02:04.062Z,8.67
2018-05-31T03:04:31.879Z,6.97
2018-05-31T03:07:00.342Z,7.67
2018-05-31T03:09:28.153Z,9.97
2018-05-31T03:11:55.974Z,4.77
2018-05-31T03:14:24.042Z,8.20
2018-05-31T03:16:51.854Z,8.07
2018-05-31T03:19:19.661Z,5.93
2018-05-31T03:21:47.517Z,8.40
2018-05-31T03:24:15.351Z,7.27
2018-05-31T03:26:43.167Z,8.20
2018-05-31T03:29:12.181Z,6.03
2018-05-31T03:31:40.001Z,7.33
2018-05-31T03:34:07.821Z,5.70
2018-05-31T03:36:36.496Z,7.17
2018-05-31T03:39:04.329Z,10.57
2018-05-31T03:41:32.149Z,8.97
2018-05-31T03:44:00.191Z,6.83
2018-05-31T03:46:28.010Z,6.40
2018-05-31T03:48:55.833Z,7.70
2018-05-31T03:51:24.205Z,8.77
2018-05-31T03:53:52.021Z,7.33
2018-05-31T03:56:19.844Z,8.67
2018-05-31T03:58:47.711Z,7.13
2018-05-31T04:01:15.522Z,5.90
2018-05-31T04:03:43.339Z,7.17
2018-05-31T04:06:11.506Z,5.10
2018-05-31T04:08:39.317Z,5.93
2018-05-31T04:11:07.125Z,6.73
2018-05-31T04:13:35.214Z,10.50
2018-05-31T04:16:03.047Z,5.97
2018-05-31T04:18:30.875Z,9.33
2018-05-31T04:20:59.053Z,8.17
2018-05-31T04:23:26.873Z,6.80
2018-05-31T04:25:54.697Z,7.93
2018-05-31T04:28:22.824Z,8.60
2018-05-31T04:30:51.418Z,7.80
2018-05-31T04:33:19.242Z,10.23
2018-05-31T04:35:47.455Z,9.87
2018-05-31T04:38:15.294Z,7.57
2018-05-31T04:40:43.114Z,6.50
2018-05-31T04:43:10.999Z,5.60
2018-05-31T04:45:38.823Z,6.47
2018-05-31T04:48:06.657Z,6.87
2018-05-31T04:50:34.541Z,5.17
2018-05-31T04:53:02.374Z,5.50
2018-05-31T04:55:30.193Z,6.10
2018-05-31T04:57:58.468Z,6.23
2018-05-31T05:00:26.290Z,9.63
2018-05-31T05:02:54.140Z,6.10
2018-05-31T05:05:22.038Z,4.83
2018-05-31T05:07:49.866Z,5.60
2018-05-31T05:10:17.683Z,6.73
2018-05-31T05:12:45.769Z,7.03
2018-05-31T05:15:13.585Z,6.77
2018-05-31T05:17:41.401Z,6.80
2018-05-31T05:20:09.877Z,8.10
2018-05-31T05:22:37.698Z,6.17
2018-05-31T05:25:05.522Z,7.20
2018-05-31T05:27:33.409Z,7.37
2018-05-31T05:30:01.254Z,9.30
2018-05-31T05:32:30.188Z,11.23
2018-05-31T05:34:58.310Z,9.13
2018-05-31T05:37:26.142Z,9.63
2018-05-31T05:39:53.969Z,7.90
2018-05-31T05:42:22.734Z,9.17
2018-05-31T05:44:50.553Z,10.57
2018-05-31T05:47:18.381Z,10.87
2018-05-31T05:49:46.701Z,10.93
2018-05-31T05:52:14.529Z,11.40
2018-05-31T05:54:42.357Z,10.00
2018-05-31T05:57:10.456Z,8.93
2018-05-31T05:59:38.294Z,9.30
2018-05-31T06:02:06.129Z,10.53
2018-05-31T06:04:34.874Z,8.40
2018-05-31T06:07:02.704Z,10.70
2018-05-31T06:09:30.525Z,8.97
2018-05-31T06:11:58.474Z,8.47
2018-05-31T06:14:26.291Z,6.60
2018-05-31T06:16:54.110Z,6.93
2018-05-31T06:19:22.079Z,8.47
2018-05-31T06:21:49.903Z,9.83
2018-05-31T06:24:17.731Z,7.23
2018-05-31T06:26:50.322Z,4.40
2018-05-31T06:29:18.181Z,5.13
2018-05-31T06:31:46.008Z,4.73
2018-05-31T06:34:14.481Z,5.80
2018-05-31T06:36:42.298Z,7.00
2018-05-31T06:39:10.125Z,4.90
2018-05-31T06:41:38.410Z,10.17
2018-05-31T06:44:06.251Z,6.53
2018-05-31T06:46:34.057Z,5.43
2018-05-31T06:49:02.431Z,5.77
2018-05-31T06:51:30.245Z,5.93
2018-05-31T06:53:58.056Z,6.80
2018-05-31T06:56:26.636Z,6.37
2018-05-31T06:58:54.470Z,5.97
2018-05-31T07:01:22.293Z,5.43
2018-05-31T07:03:50.149Z,5.47
2018-05-31T07:06:17.966Z,5.70
2018-05-31T07:08:45.789Z,6.77
2018-05-31T07:11:14.160Z,6.77
2018-05-31T07:13:41.990Z,8.07
2018-05-31T07:16:09.804Z,6.43
2018-05-31T07:18:37.758Z,6.50
2018-05-31T07:21:05.582Z,8.23
2018-05-31T07:23:33.397Z,8.50
2018-05-31T07:26:01.403Z,6.40
2018-05-31T07:28:29.221Z,4.77
2018-05-31T07:30:57.046Z,5.70
2018-05-31T07:33:25.406Z,7.28
2018-05-31T07:35:54.057Z,6.93
2018-05-31T07:38:21.883Z,6.50
2018-05-31T07:40:49.744Z,6.97
2018-05-31T07:43:17.557Z,6.07
2018-05-31T07:45:45.371Z,6.70
2018-05-31T07:48:13.241Z,6.72
2018-05-31T07:50:41.056Z,7.57
2018-05-31T07:53:08.865Z,6.37
2018-05-31T07:55:36.990Z,6.07
2018-05-31T07:58:04.827Z,6.90
2018-05-31T08:00:32.669Z,8.05
2018-05-31T08:03:00.906Z,5.45
2018-05-31T08:05:28.727Z,5.82
2018-05-31T08:07:56.558Z,8.93
2018-05-31T08:10:24.702Z,7.07
2018-05-31T08:12:52.542Z,5.82
2018-05-31T08:15:20.365Z,9.30
2018-05-31T08:17:49.028Z,8.98
2018-05-31T08:20:16.848Z,10.82
2018-05-31T08:22:44.675Z,6.53
2018-05-31T08:25:12.932Z,10.07
2018-05-31T08:27:40.749Z,7.12
2018-05-31T08:30:08.575Z,5.35
2018-05-31T08:32:36.750Z,6.75
2018-05-31T08:35:04.571Z,5.55
2018-05-31T08:37:32.890Z,5.43
2018-05-31T08:40:01.533Z,6.55
2018-05-31T08:42:29.368Z,6.32
2018-05-31T08:44:57.198Z,5.80
2018-05-31T08:47:25.074Z,6.97
2018-05-31T08:49:52.898Z,6.82
2018-05-31T08:52:20.730Z,6.95
2018-05-31T08:54:48.612Z,6.82
2018-05-31T08:57:16.444Z,6.90
2018-05-31T08:59:44.301Z,6.65
2018-05-31T09:02:12.382Z,4.22
2018-05-31T09:04:40.214Z,5.22
2018-05-31T09:07:08.026Z,5.10
2018-05-31T09:09:35.894Z,3.85
2018-05-31T09:12:03.731Z,8.07
2018-05-31T09:14:31.577Z,6.82
2018-05-31T09:16:59.678Z,6.80
2018-05-31T09:19:27.490Z,4.62
2018-05-31T09:21:55.325Z,8.13
2018-05-31T09:24:23.789Z,6.12
2018-05-31T09:26:51.614Z,9.23
2018-05-31T09:29:19.437Z,5.05
2018-05-31T09:31:47.500Z,5.53
2018-05-31T09:34:15.320Z,3.60
2018-05-31T09:36:43.142Z,5.85
2018-05-31T09:39:11.974Z,6.30
2018-05-31T09:41:39.793Z,5.10
2018-05-31T09:44:07.623Z,4.62
2018-05-31T09:46:36.266Z,4.15
2018-05-31T09:49:04.066Z,7.55
2018-05-31T09:51:31.893Z,6.70
2018-05-31T09:53:59.949Z,4.95
2018-05-31T09:56:27.806Z,4.70
2018-05-31T09:58:56.558Z,4.40
2018-05-31T10:01:24.676Z,6.32
2018-05-31T10:03:52.502Z,6.55
2018-05-31T10:06:20.318Z,8.38
2018-05-31T10:08:49.199Z,5.55
2018-05-31T10:11:17.025Z,5.12
2018-05-31T10:13:44.851Z,5.47
2018-05-31T10:16:12.717Z,6.22
2018-05-31T10:18:40.534Z,8.25
2018-05-31T10:21:08.366Z,6.60
2018-05-31T10:23:36.406Z,16.27
2018-05-31T10:26:04.245Z,8.68
2018-05-31T10:28:32.068Z,83.50
2018-05-31T10:31:00.216Z,161.70
2018-05-31T10:33:28.044Z,52.62
2018-05-31T10:35:55.886Z,5.20
2018-05-31T10:38:23.789Z,7.30
2018-05-31T10:40:52.810Z,6.43
2018-05-31T10:43:20.625Z,7.80
2018-05-31T10:45:48.520Z,6.03
2018-05-31T10:48:16.315Z,5.78
2018-05-31T10:50:44.149Z,4.07
2018-05-31T10:53:13.815Z,5.43
2018-05-31T10:55:41.661Z,6.72
2018-05-31T10:58:09.514Z,6.15
2018-05-31T11:00:37.573Z,5.45
2018-05-31T11:03:05.403Z,5.03
2018-05-31T11:05:33.229Z,4.68
2018-05-31T11:08:02.426Z,6.35
2018-05-31T11:10:30.262Z,7.28
2018-05-31T11:12:58.074Z,4.15
2018-05-31T11:15:25.974Z,9.32
2018-05-31T11:17:53.802Z,6.25
2018-05-31T11:20:21.678Z,6.75
2018-05-31T11:22:49.818Z,4.40
2018-05-31T11:25:17.648Z,5.20
2018-05-31T11:27:45.485Z,5.00
2018-05-31T11:30:14.456Z,4.72
2018-05-31T11:32:42.286Z,7.03
2018-05-31T11:35:10.106Z,4.70
2018-05-31T11:37:38.464Z,6.20
2018-05-31T11:40:06.311Z,5.47
2018-05-31T11:42:35.542Z,5.12
2018-05-31T11:45:03.405Z,5.72
2018-05-31T11:47:31.220Z,4.90
2018-05-31T11:49:59.056Z,5.10
2018-05-31T11:52:27.613Z,10.90
2018-05-31T11:54:55.438Z,5.95
2018-05-31T11:57:23.263Z,5.05
2018-05-31T11:59:51.135Z,7.05
2018-05-31T12:02:18.951Z,4.30
2018-05-31T12:04:46.774Z,6.18
2018-05-31T12:07:14.690Z,5.32
2018-05-31T12:09:42.512Z,4.15
2018-05-31T12:12:10.402Z,7.10
2018-05-31T12:14:39.032Z,3.65
2018-05-31T12:17:06.859Z,3.33
2018-05-31T12:19:34.709Z,6.72
2018-05-31T12:22:02.594Z,3.83
2018-05-31T12:24:30.413Z,3.78
2018-05-31T12:26:58.234Z,4.20
2018-05-31T12:29:26.084Z,4.45
2018-05-31T12:31:53.898Z,7.85
2018-05-31T12:34:21.718Z,4.55
2018-05-31T12:36:50.662Z,8.32
2018-05-31T12:39:18.478Z,4.90
2018-05-31T12:41:46.299Z,3.50
2018-05-31T12:44:15.398Z,3.22
2018-05-31T12:46:43.233Z,4.37
2018-05-31T12:49:11.058Z,3.78
2018-05-31T12:51:38.917Z,4.75
2018-05-31T12:54:06.738Z,3.50
2018-05-31T12:56:34.565Z,4.70
2018-05-31T12:59:03.462Z,3.78
2018-05-31T13:01:31.278Z,3.22
2018-05-31T13:03:59.085Z,4.20
2018-05-31T13:06:27.206Z,2.55
2018-05-31T13:08:55.018Z,2.70
2018-05-31T13:11:22.848Z,4.05
2018-05-31T13:13:50.847Z,6.75
2018-05-31T13:16:18.662Z,2.42
2018-05-31T13:18:46.536Z,2.17
2018-05-31T13:21:15.042Z,2.30
2018-05-31T13:23:42.859Z,4.22
2018-05-31T13:26:10.688Z,5.12
2018-05-31T13:28:38.740Z,3.90
2018-05-31T13:31:06.570Z,4.45
2018-05-31T13:33:34.397Z,3.92
2018-05-31T13:36:02.406Z,3.05
2018-05-31T13:38:30.236Z,4.90
2018-05-31T13:40:58.049Z,4.55
2018-05-31T13:43:26.965Z,5.78
2018-05-31T13:45:56.003Z,3.33
2018-05-31T13:48:23.835Z,4.15
2018-05-31T13:50:52.102Z,5.53
2018-05-31T13:53:19.926Z,5.75
2018-05-31T13:55:47.761Z,3.67
2018-05-31T13:58:16.003Z,3.30
2018-05-31T14:00:43.822Z,2.87
2018-05-31T14:03:11.648Z,4.28
2018-05-31T14:05:40.323Z,3.15
2018-05-31T14:08:10.459Z,4.95
2018-05-31T14:10:38.290Z,5.37
2018-05-31T14:13:06.494Z,4.07
2018-05-31T14:15:34.372Z,3.95
2018-05-31T14:18:02.150Z,3.20
2018-05-31T14:20:30.035Z,4.60
2018-05-31T14:22:57.879Z,3.35
2018-05-31T14:25:25.717Z,3.58
2018-05-31T14:27:53.918Z,3.08
2018-05-31T14:30:21.776Z,4.68
2018-05-31T14:32:49.631Z,6.03
2018-05-31T14:35:17.532Z,4.65
2018-05-31T14:37:45.350Z,3.42
2018-05-31T14:40:13.178Z,3.62
2018-05-31T14:42:41.298Z,2.97
2018-05-31T14:45:09.134Z,3.22
2018-05-31T14:47:37.562Z,4.45
2018-05-31T14:50:05.626Z,3.03
2018-05-31T14:52:33.462Z,4.90
2018-05-31T14:55:01.275Z,3.70
2018-05-31T14:57:29.151Z,4.15
2018-05-31T14:59:56.974Z,3.83
2018-05-31T15:02:24.810Z,4.60
2018-05-31T15:04:52.925Z,5.30
2018-05-31T15:07:20.772Z,4.62
2018-05-31T15:09:50.375Z,5.22
2018-05-31T15:12:18.231Z,4.40
2018-05-31T15:14:46.059Z,4.05
2018-05-31T15:17:13.894Z,3.95
2018-05-31T15:19:41.803Z,5.82
2018-05-31T15:22:09.645Z,2.87
2018-05-31T15:24:37.473Z,4.60
2018-05-31T15:27:06.427Z,3.75
2018-05-31T15:29:34.267Z,2.92
2018-05-31T15:32:02.121Z,3.45
2018-05-31T15:34:30.200Z,5.68
2018-05-31T15:36:58.024Z,5.68
2018-05-31T15:39:25.865Z,4.18
2018-05-31T15:41:54.008Z,4.20
2018-05-31T15:44:21.835Z,4.20
2018-05-31T15:46:49.689Z,3.17
2018-05-31T15:49:19.666Z,4.55
2018-05-31T15:51:47.509Z,3.47
2018-05-31T15:54:15.351Z,4.32
2018-05-31T15:56:43.220Z,3.17
2018-05-31T15:59:11.053Z,6.78
2018-05-31T16:01:38.885Z,3.80
2018-05-31T16:04:07.186Z,5.93
2018-05-31T16:06:35.040Z,4.57
2018-05-31T16:09:03.163Z,4.32
2018-05-31T16:11:32.106Z,5.40
2018-05-31T16:13:59.938Z,3.78
2018-05-31T16:16:27.767Z,4.55
2018-05-31T16:18:56.133Z,3.62
2018-05-31T16:21:24.002Z,4.82
2018-05-31T16:23:51.851Z,5.32
2018-05-31T16:26:19.882Z,2.53
2018-05-31T16:28:47.718Z,5.10
2018-05-31T16:31:15.557Z,3.58
2018-05-31T16:33:44.349Z,4.20
2018-05-31T16:36:12.171Z,4.72
2018-05-31T16:38:40.024Z,3.97
2018-05-31T16:41:08.759Z,3.58
2018-05-31T16:43:36.578Z,5.25
2018-05-31T16:46:04.417Z,3.35
2018-05-31T16:48:32.671Z,4.28
2018-05-31T16:51:01.270Z,3.22
2018-05-31T16:53:29.102Z,5.45
2018-05-31T16:55:57.395Z,4.45
2018-05-31T16:58:25.230Z,6.93
2018-05-31T17:00:53.073Z,4.70
2018-05-31T17:03:21.118Z,4.28
2018-05-31T17:05:48.936Z,5.53
2018-05-31T17:08:16.774Z,3.97
2018-05-31T17:10:44.810Z,4.32
2018-05-31T17:13:12.748Z,3.80
2018-05-31T17:15:40.571Z,4.57
2018-05-31T17:18:08.710Z,2.90
2018-05-31T17:20:36.521Z,4.80
2018-05-31T17:23:04.367Z,3.72
2018-05-31T17:25:32.424Z,4.00
2018-05-31T17:28:00.266Z,4.53
2018-05-31T17:30:28.115Z,4.00
2018-05-31T17:32:56.014Z,5.40
2018-05-31T17:35:23.838Z,3.28
2018-05-31T17:37:51.658Z,3.37
2018-05-31T17:40:20.243Z,5.03
2018-05-31T17:42:48.075Z,2.83
2018-05-31T17:45:15.899Z,4.85
2018-05-31T17:47:45.070Z,3.42
2018-05-31T17:50:12.890Z,3.25
2018-05-31T17:52:41.024Z,4.82
2018-05-31T17:55:09.624Z,3.42
2018-05-31T17:57:37.452Z,3.30
2018-05-31T18:00:05.279Z,4.07
2018-05-31T18:02:33.807Z,3.97
2018-05-31T18:05:01.685Z,3.42
2018-05-31T18:07:31.587Z,8.65
2018-05-31T18:09:59.513Z,5.82
2018-05-31T18:12:27.318Z,4.80
2018-05-31T18:14:55.197Z,3.28
2018-05-31T18:17:23.474Z,4.37
2018-05-31T18:19:51.302Z,6.22
2018-05-31T18:22:19.136Z,3.70
2018-05-31T18:24:47.590Z,4.05
2018-05-31T18:27:15.458Z,3.97
2018-05-31T18:29:43.309Z,2.17
2018-05-31T18:32:11.178Z,4.43
2018-05-31T18:34:39.048Z,4.18
2018-05-31T18:37:06.854Z,3.65
2018-05-31T18:39:34.894Z,4.62
2018-05-31T18:42:02.726Z,2.00
2018-05-31T18:44:30.547Z,2.40
2018-05-31T18:46:58.702Z,5.32
2018-05-31T18:49:26.547Z,3.67
2018-05-31T18:51:54.426Z,6.22
2018-05-31T18:54:23.009Z,4.45
2018-05-31T18:56:50.842Z,5.53
2018-05-31T18:59:18.695Z,6.60
2018-05-31T19:01:46.590Z,4.07
2018-05-31T19:04:14.419Z,4.97
2018-05-31T19:06:42.271Z,2.87
2018-05-31T19:09:17.400Z,2.30
2018-05-31T19:11:45.235Z,4.25
2018-05-31T19:14:13.082Z,5.07
2018-05-31T19:16:41.071Z,3.75
2018-05-31T19:19:15.112Z,3.05
2018-05-31T19:21:43.642Z,5.12
2018-05-31T19:24:17.525Z,4.03
2018-05-31T19:26:45.773Z,3.83
2018-05-31T19:29:13.654Z,8.77
2018-05-31T19:31:41.465Z,4.47
2018-05-31T19:34:09.787Z,4.47
2018-05-31T19:36:43.763Z,3.08
2018-05-31T19:39:11.878Z,4.60
2018-05-31T19:41:39.712Z,3.60
2018-05-31T19:44:14.887Z,4.15
2018-05-31T19:46:42.774Z,3.10
2018-05-31T19:49:10.632Z,6.00
2018-05-31T19:51:44.943Z,2.85
2018-05-31T19:54:12.796Z,7.07
2018-05-31T19:56:41.637Z,3.30
2018-05-31T19:59:16.638Z,4.82
2018-05-31T20:01:50.494Z,6.12
2018-05-31T20:04:19.010Z,3.45
2018-05-31T20:06:46.858Z,6.82
2018-05-31T20:09:14.706Z,4.15
2018-05-31T20:11:42.623Z,4.93
2018-05-31T20:14:10.469Z,5.57
2018-05-31T20:16:38.322Z,4.97
2018-05-31T20:19:07.040Z,4.60
2018-05-31T20:21:34.897Z,5.28
2018-05-31T20:24:02.749Z,4.15
2018-05-31T20:26:30.761Z,4.57
2018-05-31T20:28:58.559Z,6.00
2018-05-31T20:31:26.395Z,5.45
2018-05-31T20:33:54.305Z,5.12
2018-05-31T20:36:22.138Z,5.45
2018-05-31T20:38:50.033Z,6.45
2018-05-31T20:41:18.970Z,7.85
2018-05-31T20:43:46.830Z,7.82
2018-05-31T20:46:14.650Z,6.03
2018-05-31T20:48:42.546Z,5.00
2018-05-31T20:51:10.420Z,3.60
2018-05-31T20:53:38.215Z,7.28
2018-05-31T20:56:06.138Z,5.62
2018-05-31T20:58:35.507Z,6.72
2018-05-31T21:01:03.346Z,5.65
2018-05-31T21:03:31.613Z,6.80
2018-05-31T21:05:59.491Z,3.60
2018-05-31T21:08:27.325Z,7.03
2018-05-31T21:10:55.908Z,4.45
2018-05-31T21:13:23.731Z,7.28
2018-05-31T21:15:51.570Z,5.40
2018-05-31T21:18:21.074Z,4.95
2018-05-31T21:20:48.910Z,5.70
2018-05-31T21:23:18.545Z,7.72
2018-05-31T21:25:46.409Z,5.82
2018-05-31T21:28:14.231Z,7.18
2018-05-31T21:30:42.051Z,4.40
2018-05-31T21:33:10.427Z,5.47
2018-05-31T21:35:38.390Z,4.03
2018-05-31T21:38:06.121Z,6.60
2018-05-31T21:40:34.891Z,4.03
2018-05-31T21:43:02.731Z,6.95
2018-05-31T21:45:30.565Z,6.03
2018-05-31T21:47:58.531Z,5.10
2018-05-31T21:50:26.376Z,3.50
2018-05-31T21:52:54.199Z,3.28
2018-05-31T21:55:22.350Z,4.80
2018-05-31T21:57:50.171Z,5.72
2018-05-31T22:00:22.283Z,7.07
2018-05-31T22:02:50.102Z,5.40
2018-05-31T22:05:17.913Z,8.30
2018-05-31T22:07:45.993Z,7.47
2018-05-31T22:10:13.809Z,3.28
2018-05-31T22:12:41.624Z,9.00
2018-05-31T22:15:09.687Z,7.97
2018-05-31T22:17:37.507Z,7.72
2018-05-31T22:20:05.333Z,3.53
2018-05-31T22:22:34.215Z,7.50
2018-05-31T22:25:02.084Z,7.45
2018-05-31T22:27:29.914Z,4.25
2018-05-31T22:29:57.914Z,5.50
2018-05-31T22:32:25.733Z,11.18
2018-05-31T22:34:53.558Z,5.18
2018-05-31T22:37:21.621Z,8.27
2018-05-31T22:39:49.458Z,9.77
2018-05-31T22:42:17.286Z,11.07
2018-05-31T22:44:46.345Z,19.80
2018-05-31T22:47:14.166Z,11.03
2018-05-31T22:49:41.994Z,28.20
2018-05-31T22:52:10.062Z,23.60
2018-05-31T22:54:37.894Z,45.63
2018-05-31T22:57:05.735Z,11.53
2018-05-31T22:59:33.637Z,11.20
2018-05-31T23:02:02.638Z,28.27
2018-05-31T23:04:30.473Z,35.23
2018-05-31T23:06:58.590Z,8.13
